Time;durP1;ratioP1;P1;durP2;ratioP2;P2;SDS_P1;SDS_P2;PMS_P1;PMS_P2;Temp;Humidity;BMP_temperature;BMP_pressure;BME280_temperature;BME280_humidity;BME280_pressure;Samples;Min_cycle;Max_cycle;Signal;HPM_P1;HPM_P2
2023/03/03 00:01:14;;;;;;;54.87;19.27;;;2.50;99.90;;;;;;5021962;28;20197;-63
2023/03/03 00:03:41;;;;;;;54.23;19.73;;;2.50;99.90;;;;;;5001347;28;20334;-63
2023/03/03 00:06:11;;;;;;;54.00;20.57;;;2.50;99.90;;;;;;5003590;28;20206;-63
2023/03/03 00:08:38;;;;;;;48.03;18.67;;;2.60;99.90;;;;;;4979017;28;20516;-64
2023/03/03 00:11:06;;;;;;;48.47;20.63;;;2.50;99.90;;;;;;5005266;28;20197;-63
2023/03/03 00:13:43;;;;;;;44.30;19.20;;;2.60;99.90;;;;;;5002331;28;20267;-64
2023/03/03 00:16:14;;;;;;;52.57;20.70;;;2.50;99.90;;;;;;4999958;28;20202;-63
2023/03/03 00:18:43;;;;;;;49.40;20.53;;;2.60;99.90;;;;;;4993586;28;20453;-63
2023/03/03 00:21:24;;;;;;;57.67;20.77;;;2.60;99.90;;;;;;4996555;28;20776;-63
2023/03/03 00:23:51;;;;;;;53.20;19.23;;;2.60;99.90;;;;;;4985923;28;20766;-63
2023/03/03 00:26:22;;;;;;;55.60;20.50;;;2.60;99.90;;;;;;5012554;28;20202;-63
2023/03/03 00:28:50;;;;;;;54.43;20.93;;;2.50;99.90;;;;;;5007530;28;20197;-63
2023/03/03 00:31:19;;;;;;;48.13;18.87;;;2.60;99.90;;;;;;5002336;28;20197;-63
2023/03/03 00:33:53;;;;;;;45.27;19.40;;;2.60;99.90;;;;;;5000215;28;20236;-63
2023/03/03 00:36:30;;;;;;;55.87;20.13;;;2.60;99.90;;;;;;5011215;28;20752;-63
2023/03/03 00:39:11;;;;;;;51.67;20.13;;;2.60;99.90;;;;;;4981101;28;20328;-63
2023/03/03 00:41:39;;;;;;;48.67;18.90;;;2.70;99.90;;;;;;5021729;28;20271;-63
2023/03/03 00:44:40;;;;;;;49.67;20.13;;;2.60;99.90;;;;;;5019180;28;20339;-63
2023/03/03 00:47:25;;;;;;;46.53;18.97;;;2.70;99.90;;;;;;5000986;28;20552;-63
2023/03/03 00:49:53;;;;;;;50.07;19.77;;;2.70;99.90;;;;;;4996269;28;20252;-63
2023/03/03 00:52:20;;;;;;;41.93;18.80;;;2.60;99.90;;;;;;5008980;28;20202;-63
2023/03/03 00:54:47;;;;;;;44.13;18.93;;;2.60;99.90;;;;;;4981624;28;20226;-63
2023/03/03 00:57:14;;;;;;;52.23;20.47;;;2.60;99.90;;;;;;5021177;28;20198;-63
2023/03/03 00:59:41;;;;;;;41.30;17.90;;;2.70;99.90;;;;;;5013017;28;20964;-63
2023/03/03 01:02:08;;;;;;;38.70;17.13;;;2.70;99.90;;;;;;4990019;28;20337;-63
2023/03/03 01:04:36;;;;;;;34.53;15.10;;;2.70;99.90;;;;;;5002117;28;20706;-63
2023/03/03 01:07:03;;;;;;;33.07;15.73;;;2.80;99.90;;;;;;5000787;28;20300;-63
2023/03/03 01:09:29;;;;;;;31.37;15.73;;;2.70;99.90;;;;;;5022482;28;20205;-64
2023/03/03 01:11:56;;;;;;;29.60;15.10;;;2.70;99.90;;;;;;4981807;28;20205;-63
2023/03/03 01:14:23;;;;;;;28.67;14.53;;;2.70;99.90;;;;;;5021726;28;20658;-63
2023/03/03 01:16:50;;;;;;;32.27;15.53;;;2.60;99.90;;;;;;5003558;28;20194;-63
2023/03/03 01:19:17;;;;;;;28.40;13.63;;;2.70;99.90;;;;;;5019034;28;20205;-63
2023/03/03 01:21:45;;;;;;;27.13;13.97;;;2.70;99.90;;;;;;4992047;28;20201;-63
2023/03/03 01:24:12;;;;;;;27.43;14.07;;;2.60;99.90;;;;;;5010790;28;20562;-63
2023/03/03 01:26:38;;;;;;;26.07;12.67;;;2.70;99.90;;;;;;4979438;28;20682;-63
2023/03/03 01:29:05;;;;;;;26.53;13.50;;;2.60;99.90;;;;;;5012703;28;20841;-63
2023/03/03 01:31:32;;;;;;;26.53;12.53;;;2.60;99.90;;;;;;5018503;28;20201;-63
2023/03/03 01:33:59;;;;;;;29.50;14.17;;;2.60;99.90;;;;;;4999405;28;20225;-63
2023/03/03 01:36:26;;;;;;;24.20;12.33;;;2.50;99.90;;;;;;4998016;28;20209;-63
2023/03/03 01:38:54;;;;;;;28.20;13.17;;;2.50;99.90;;;;;;4997745;28;20208;-63
2023/03/03 01:41:21;;;;;;;30.37;13.10;;;2.50;99.90;;;;;;4980996;28;20227;-63
2023/03/03 01:43:50;;;;;;;23.57;12.50;;;2.50;99.90;;;;;;5006375;28;20205;-63
2023/03/03 01:46:41;;;;;;;24.57;11.80;;;2.40;99.90;;;;;;5014871;28;20199;-63
2023/03/03 01:49:13;;;;;;;24.40;11.67;;;2.40;99.90;;;;;;5002571;28;20458;-63
2023/03/03 01:51:50;;;;;;;24.07;11.40;;;2.40;99.90;;;;;;4998186;28;20208;-63
2023/03/03 01:54:22;;;;;;;22.50;11.17;;;2.40;99.90;;;;;;5003303;28;20221;-64
2023/03/03 01:56:51;;;;;;;20.00;11.43;;;2.40;99.90;;;;;;4973893;28;20247;-63
2023/03/03 01:59:22;;;;;;;18.47;10.23;;;2.30;99.90;;;;;;5011065;28;20223;-63
2023/03/03 02:01:49;;;;;;;24.23;11.63;;;2.30;99.90;;;;;;5010058;28;20215;-63
2023/03/03 02:04:18;;;;;;;20.00;11.00;;;2.30;99.90;;;;;;4998783;28;20201;-63
2023/03/03 02:06:50;;;;;;;19.93;10.63;;;2.30;99.90;;;;;;4991537;28;20848;-63
2023/03/03 02:09:26;;;;;;;23.63;10.73;;;2.40;99.90;;;;;;5000995;28;20204;-63
2023/03/03 02:11:58;;;;;;;20.30;10.87;;;2.30;99.90;;;;;;4975253;28;20266;-63
2023/03/03 02:14:25;;;;;;;26.40;10.57;;;2.40;99.90;;;;;;5009299;28;20232;-63
2023/03/03 02:16:52;;;;;;;45.50;10.97;;;2.30;99.90;;;;;;5011081;28;20208;-64
2023/03/03 02:19:28;;;;;;;23.60;10.90;;;2.30;99.90;;;;;;5013115;28;20750;-63
2023/03/03 02:21:55;;;;;;;55.60;10.90;;;2.20;99.90;;;;;;5019315;28;20204;-63
2023/03/03 02:24:28;;;;;;;20.73;9.77;;;2.10;99.90;;;;;;4992603;28;20708;-63
2023/03/03 02:26:57;;;;;;;16.80;8.03;;;2.20;99.90;;;;;;5011848;28;20220;-64
2023/03/03 02:29:23;;;;;;;21.13;9.80;;;2.20;99.90;;;;;;4985550;28;20428;-63
2023/03/03 02:31:50;;;;;;;28.33;9.00;;;2.10;99.90;;;;;;5016770;28;20471;-63
2023/03/03 02:34:17;;;;;;;22.00;10.60;;;2.10;99.90;;;;;;5017349;28;20220;-63
2023/03/03 02:36:44;;;;;;;26.53;10.83;;;2.00;99.90;;;;;;5006771;28;21429;-63
2023/03/03 02:39:16;;;;;;;21.80;9.07;;;2.10;99.90;;;;;;5001977;28;20204;-63
2023/03/03 02:41:50;;;;;;;19.23;9.80;;;2.00;99.90;;;;;;5005459;28;20711;-63
2023/03/03 02:44:19;;;;;;;23.17;9.33;;;2.00;99.90;;;;;;4980366;28;20220;-63
2023/03/03 02:46:48;;;;;;;21.50;8.90;;;2.00;99.90;;;;;;5014680;28;20358;-64
2023/03/03 02:49:17;;;;;;;18.60;8.83;;;2.10;99.90;;;;;;5016237;28;20204;-63
2023/03/03 02:51:45;;;;;;;32.27;9.07;;;2.20;99.90;;;;;;5005764;28;20209;-63
2023/03/03 02:54:13;;;;;;;23.00;8.40;;;2.10;99.90;;;;;;5001040;28;20311;-63
2023/03/03 02:56:40;;;;;;;46.57;8.03;;;2.20;99.90;;;;;;5004103;28;20338;-63
2023/03/03 02:59:07;;;;;;;24.87;9.27;;;2.10;99.90;;;;;;5016928;28;20206;-64
2023/03/03 03:01:36;;;;;;;23.47;8.53;;;2.20;99.90;;;;;;4978660;28;21133;-63
2023/03/03 03:04:05;;;;;;;26.77;8.57;;;2.30;99.90;;;;;;5021285;28;20926;-64
2023/03/03 03:06:32;;;;;;;20.57;8.47;;;2.30;99.90;;;;;;5008508;28;20286;-63
2023/03/03 03:08:59;;;;;;;22.60;8.07;;;2.30;99.90;;;;;;5004616;28;20212;-63
2023/03/03 03:11:26;;;;;;;15.93;7.63;;;2.30;99.90;;;;;;5008151;28;20201;-64
2023/03/03 03:13:53;;;;;;;37.33;8.33;;;2.30;99.90;;;;;;5014983;28;20222;-64
2023/03/03 03:16:20;;;;;;;17.73;7.57;;;2.20;99.90;;;;;;4982434;28;20241;-64
2023/03/03 03:18:49;;;;;;;23.37;8.20;;;2.30;99.90;;;;;;5013317;28;20441;-63
2023/03/03 03:21:16;;;;;;;18.47;7.27;;;2.30;99.90;;;;;;5005928;28;20626;-63
2023/03/03 03:23:43;;;;;;;29.03;8.13;;;2.30;99.90;;;;;;4986732;28;21937;-64
2023/03/03 03:26:10;;;;;;;16.43;8.63;;;2.40;99.90;;;;;;5002655;28;20210;-63
2023/03/03 03:28:38;;;;;;;14.07;7.70;;;2.40;99.90;;;;;;5001783;28;20193;-63
2023/03/03 03:31:05;;;;;;;47.80;8.57;;;2.40;99.90;;;;;;4983194;28;20205;-64
2023/03/03 03:33:33;;;;;;;20.27;7.47;;;2.40;99.90;;;;;;5008879;28;20196;-63
2023/03/03 03:36:01;;;;;;;62.80;9.37;;;2.40;99.90;;;;;;5019822;28;20249;-64
2023/03/03 03:38:30;;;;;;;46.10;8.63;;;2.40;99.90;;;;;;4997095;28;20220;-64
2023/03/03 03:40:57;;;;;;;13.90;8.33;;;2.40;99.90;;;;;;5017630;28;20727;-64
2023/03/03 03:43:24;;;;;;;23.17;7.80;;;2.40;99.90;;;;;;4998588;28;20215;-63
2023/03/03 03:45:50;;;;;;;33.80;9.33;;;2.40;99.90;;;;;;4975287;28;22324;-64
2023/03/03 03:48:18;;;;;;;28.60;8.40;;;2.40;99.90;;;;;;5012854;28;20305;-63
2023/03/03 03:50:46;;;;;;;34.53;9.03;;;2.20;99.90;;;;;;5019186;28;20362;-64
2023/03/03 03:53:14;;;;;;;36.10;9.43;;;2.50;99.90;;;;;;5022001;28;20205;-64
2023/03/03 03:55:41;;;;;;;52.03;9.57;;;2.50;99.90;;;;;;5001863;28;20434;-64
2023/03/03 03:58:08;;;;;;;79.73;9.93;;;2.50;99.90;;;;;;4997880;28;20205;-63
2023/03/03 04:00:35;;;;;;;48.17;9.30;;;2.50;99.90;;;;;;4968731;28;21602;-64
2023/03/03 04:03:02;;;;;;;32.53;8.70;;;2.50;99.90;;;;;;5010516;28;20214;-64
2023/03/03 04:05:28;;;;;;;19.50;9.10;;;2.50;99.90;;;;;;5017960;28;20667;-63
2023/03/03 04:07:55;;;;;;;36.80;9.97;;;2.50;99.90;;;;;;5014596;28;20585;-63
2023/03/03 04:10:23;;;;;;;52.83;9.17;;;2.50;99.90;;;;;;5003582;28;20659;-64
2023/03/03 04:12:50;;;;;;;23.83;8.43;;;2.60;99.90;;;;;;4996832;28;20396;-64
2023/03/03 04:15:17;;;;;;;21.13;9.60;;;2.60;99.90;;;;;;5002417;28;20218;-63
2023/03/03 04:17:43;;;;;;;46.70;9.50;;;2.60;99.90;;;;;;4972488;28;20753;-63
2023/03/03 04:20:14;;;;;;;41.17;9.83;;;2.60;99.90;;;;;;5015004;28;20729;-64
2023/03/03 04:22:40;;;;;;;47.37;10.53;;;2.60;99.90;;;;;;5013225;28;20389;-64
2023/03/03 04:25:08;;;;;;;47.97;9.63;;;2.70;99.90;;;;;;4996923;28;20214;-64
2023/03/03 04:27:37;;;;;;;46.93;9.87;;;2.70;99.90;;;;;;4991950;28;20221;-64
2023/03/03 04:30:06;;;;;;;40.33;8.93;;;2.70;99.90;;;;;;5004095;28;20198;-64
2023/03/03 04:32:33;;;;;;;24.73;8.93;;;2.70;99.90;;;;;;4981584;28;21853;-63
2023/03/03 04:35:01;;;;;;;34.27;10.10;;;2.70;99.90;;;;;;5019773;28;20783;-64
2023/03/03 04:37:27;;;;;;;27.23;9.70;;;2.70;99.90;;;;;;5015693;28;20201;-64
2023/03/03 04:39:54;;;;;;;21.97;9.13;;;2.80;99.90;;;;;;5016434;28;20201;-64
2023/03/03 04:42:21;;;;;;;22.17;9.47;;;2.80;99.90;;;;;;5001713;28;20198;-63
2023/03/03 04:44:49;;;;;;;35.00;10.83;;;2.80;99.90;;;;;;5020324;28;20219;-64
2023/03/03 04:47:16;;;;;;;22.07;10.60;;;5.00;99.90;;;;;;4993472;28;20201;-64
2023/03/03 04:49:43;;;;;;;22.57;10.77;;;2.80;99.90;;;;;;4983686;28;20430;-63
2023/03/03 04:52:09;;;;;;;22.50;11.17;;;2.80;99.90;;;;;;5012340;28;20198;-64
2023/03/03 04:54:36;;;;;;;26.00;11.33;;;2.90;99.90;;;;;;5014873;28;20844;-63
2023/03/03 04:57:03;;;;;;;31.10;11.00;;;2.80;99.90;;;;;;5001841;28;20540;-63
2023/03/03 04:59:30;;;;;;;19.90;9.30;;;2.80;99.90;;;;;;5003828;28;20206;-64
2023/03/03 05:01:58;;;;;;;24.27;10.47;;;2.80;99.90;;;;;;4990914;28;20291;-64
2023/03/03 05:04:25;;;;;;;24.37;10.70;;;2.90;99.90;;;;;;4969409;28;20212;-63
2023/03/03 05:06:52;;;;;;;18.03;9.60;;;2.90;99.90;;;;;;5003770;28;20208;-64
2023/03/03 05:09:18;;;;;;;18.53;9.67;;;2.90;99.90;;;;;;4991567;28;20255;-63
2023/03/03 05:11:45;;;;;;;22.53;9.77;;;2.90;99.90;;;;;;4993397;28;20463;-64
2023/03/03 05:14:12;;;;;;;23.80;10.53;;;2.90;99.90;;;;;;5014356;28;20212;-63
2023/03/03 05:16:39;;;;;;;18.17;10.20;;;3.00;99.90;;;;;;4993981;28;20944;-64
2023/03/03 05:19:07;;;;;;;22.50;9.97;;;2.90;99.90;;;;;;4984951;28;20216;-64
2023/03/03 05:21:34;;;;;;;27.07;10.37;;;2.90;99.90;;;;;;5005782;28;20477;-64
2023/03/03 05:24:01;;;;;;;23.43;10.03;;;3.00;99.90;;;;;;5001705;28;20202;-64
2023/03/03 05:26:28;;;;;;;18.67;9.40;;;3.00;99.90;;;;;;5012705;28;20404;-64
2023/03/03 05:28:55;;;;;;;21.30;10.60;;;3.00;99.90;;;;;;4997235;28;20206;-64
2023/03/03 05:31:22;;;;;;;19.10;9.73;;;2.90;99.90;;;;;;4993582;28;20213;-64
2023/03/03 05:33:49;;;;;;;18.57;9.47;;;3.00;99.90;;;;;;4991775;28;20415;-63
2023/03/03 05:36:17;;;;;;;19.50;9.47;;;3.00;99.90;;;;;;4972846;28;20222;-64
2023/03/03 05:38:43;;;;;;;17.33;9.13;;;3.00;99.90;;;;;;5006448;28;20390;-64
2023/03/03 05:41:10;;;;;;;21.13;9.53;;;3.00;99.90;;;;;;4990091;28;20202;-64
2023/03/03 05:43:37;;;;;;;17.60;9.07;;;3.00;99.90;;;;;;4983939;28;20852;-64
2023/03/03 05:46:04;;;;;;;21.63;10.43;;;3.00;99.90;;;;;;5006118;28;20235;-64
2023/03/03 05:48:31;;;;;;;18.47;9.50;;;3.00;99.90;;;;;;4997526;28;20213;-64
2023/03/03 05:50:58;;;;;;;18.57;10.17;;;3.00;99.90;;;;;;4977546;28;20312;-64
2023/03/03 05:53:27;;;;;;;18.40;8.93;;;3.00;99.90;;;;;;5017882;28;20225;-64
2023/03/03 05:55:53;;;;;;;16.73;8.80;;;3.00;99.90;;;;;;4999410;28;20229;-64
2023/03/03 05:58:21;;;;;;;16.33;9.30;;;3.00;99.90;;;;;;4991862;28;20214;-64
2023/03/03 06:00:48;;;;;;;17.77;8.60;;;3.00;99.90;;;;;;5006038;28;20729;-64
2023/03/03 06:03:15;;;;;;;14.97;8.93;;;3.00;99.90;;;;;;5001918;28;20606;-64
2023/03/03 06:05:42;;;;;;;17.93;9.87;;;3.60;99.90;;;;;;5001717;28;20273;-63
2023/03/03 06:08:09;;;;;;;17.67;9.40;;;2.90;99.90;;;;;;4998737;28;20236;-64
2023/03/03 06:10:37;;;;;;;20.30;9.10;;;3.00;99.90;;;;;;5006866;28;20194;-64
2023/03/03 06:13:04;;;;;;;22.67;8.73;;;2.90;99.90;;;;;;5014275;28;20217;-64
2023/03/03 06:15:31;;;;;;;16.73;8.63;;;2.90;99.90;;;;;;5000758;28;20298;-64
2023/03/03 06:17:58;;;;;;;18.27;9.47;;;3.00;99.90;;;;;;4998295;28;20205;-64
2023/03/03 06:20:24;;;;;;;17.57;9.83;;;3.00;99.90;;;;;;5018544;28;20232;-64
2023/03/03 06:22:51;;;;;;;19.13;9.73;;;2.90;99.90;;;;;;4983911;28;20205;-64
2023/03/03 06:25:18;;;;;;;26.00;9.87;;;2.90;99.90;;;;;;5004746;28;20236;-64
2023/03/03 06:27:46;;;;;;;18.13;9.53;;;2.80;99.90;;;;;;5005517;28;20737;-64
2023/03/03 06:30:14;;;;;;;19.23;9.53;;;2.80;99.90;;;;;;4992922;28;21882;-64
2023/03/03 06:32:41;;;;;;;21.07;9.57;;;2.80;99.90;;;;;;5005771;28;20222;-64
2023/03/03 06:35:08;;;;;;;15.53;8.53;;;2.80;99.90;;;;;;5014180;28;20225;-64
2023/03/03 06:37:35;;;;;;;17.10;9.17;;;2.80;99.90;;;;;;4990529;28;20303;-64
2023/03/03 06:40:02;;;;;;;22.50;9.23;;;2.70;99.90;;;;;;5022094;28;20213;-64
2023/03/03 06:42:28;;;;;;;24.27;8.10;;;2.80;99.90;;;;;;5013874;28;20346;-64
2023/03/03 06:44:56;;;;;;;13.93;7.77;;;2.80;99.90;;;;;;5008608;28;22974;-64
2023/03/03 06:47:23;;;;;;;19.43;8.13;;;2.80;99.90;;;;;;5028051;28;20201;-64
2023/03/03 06:49:51;;;;;;;20.60;8.60;;;2.80;99.90;;;;;;5012423;28;20313;-63
2023/03/03 06:52:22;;;;;;;15.17;8.23;;;2.80;99.90;;;;;;4997975;28;20217;-64
2023/03/03 06:54:50;;;;;;;20.10;8.83;;;2.80;99.90;;;;;;5024024;28;20199;-64
2023/03/03 06:57:22;;;;;;;19.97;8.80;;;2.80;99.90;;;;;;5016788;28;20232;-64
2023/03/03 06:59:52;;;;;;;16.43;8.10;;;2.80;99.90;;;;;;5008599;28;20220;-64
2023/03/03 07:02:21;;;;;;;14.57;7.63;;;2.80;99.90;;;;;;5021665;28;20923;-64
2023/03/03 07:04:48;;;;;;;17.40;8.30;;;2.70;99.90;;;;;;4984566;28;20317;-64
2023/03/03 07:07:19;;;;;;;14.83;8.00;;;2.70;99.90;;;;;;4988020;28;20213;-64
2023/03/03 07:09:48;;;;;;;14.70;7.20;;;2.80;99.90;;;;;;4988028;28;20817;-64
2023/03/03 07:12:17;;;;;;;19.73;7.37;;;2.70;99.90;;;;;;5004734;28;20846;-64
2023/03/03 07:14:50;;;;;;;23.07;8.30;;;2.60;99.90;;;;;;5003007;28;20224;-64
2023/03/03 07:17:18;;;;;;;12.90;6.20;;;2.70;99.90;;;;;;4995521;28;20220;-64
2023/03/03 07:19:47;;;;;;;12.93;7.50;;;2.70;99.90;;;;;;5003564;28;20230;-64
2023/03/03 07:22:17;;;;;;;23.43;6.47;;;2.70;99.90;;;;;;4983186;28;21019;-64
2023/03/03 07:24:45;;;;;;;20.17;6.23;;;2.60;99.90;;;;;;4975460;28;20261;-64
2023/03/03 07:27:17;;;;;;;19.40;5.87;;;2.60;99.90;;;;;;5003215;28;20202;-64
2023/03/03 07:29:47;;;;;;;40.83;5.80;;;2.40;99.90;;;;;;5007874;28;20765;-64
2023/03/03 07:32:24;;;;;;;23.67;4.93;;;2.40;99.90;;;;;;5003865;28;20216;-64
2023/03/03 07:34:54;;;;;;;34.03;4.43;;;2.40;99.90;;;;;;5002442;28;20216;-64
2023/03/03 07:37:29;;;;;;;15.73;4.63;;;2.30;99.90;;;;;;5003721;28;20247;-64
2023/03/03 07:39:57;;;;;;;38.37;4.47;;;2.20;99.90;;;;;;4990412;28;20751;-64
2023/03/03 07:42:27;;;;;;;38.03;4.07;;;2.20;99.90;;;;;;5013137;28;20227;-63
2023/03/03 07:44:55;;;;;;;29.00;3.37;;;2.20;99.90;;;;;;5010632;28;20209;-63
2023/03/03 07:47:24;;;;;;;33.03;4.47;;;2.20;99.90;;;;;;4996208;28;20208;-64
2023/03/03 07:49:54;;;;;;;50.00;5.17;;;2.20;99.90;;;;;;5012561;28;20212;-64
2023/03/03 07:52:28;;;;;;;29.20;4.57;;;2.10;99.90;;;;;;5008782;28;20307;-64
2023/03/03 07:54:57;;;;;;;31.10;5.03;;;2.20;99.90;;;;;;4992161;28;20571;-64
2023/03/03 07:57:27;;;;;;;17.63;8.07;;;2.10;99.90;;;;;;5006792;28;20227;-65
2023/03/03 07:59:58;;;;;;;25.73;5.47;;;2.20;99.90;;;;;;5010012;28;20201;-65
2023/03/03 08:02:40;;;;;;;16.07;4.93;;;2.20;99.90;;;;;;5008844;28;21356;-65
2023/03/03 08:05:35;;;;;;;24.37;5.33;;;2.20;99.90;;;;;;5010888;28;21031;-65
2023/03/03 08:08:14;;;;;;;9.73;5.30;;;2.30;99.90;;;;;;5009020;28;20242;-64
2023/03/03 08:10:46;;;;;;;19.37;5.37;;;2.30;99.90;;;;;;4981982;28;20709;-64
2023/03/03 08:13:18;;;;;;;8.93;4.77;;;2.40;99.90;;;;;;5006617;28;20235;-64
2023/03/03 08:15:46;;;;;;;30.93;5.33;;;2.40;99.90;;;;;;4994912;28;20208;-64
2023/03/03 08:18:34;;;;;;;13.77;5.23;;;2.50;99.90;;;;;;5002884;28;20209;-64
2023/03/03 08:21:05;;;;;;;10.47;3.70;;;2.50;99.90;;;;;;5010427;28;20213;-64
2023/03/03 08:23:32;;;;;;;8.77;4.40;;;2.50;99.90;;;;;;5014799;28;20209;-65
2023/03/03 08:25:59;;;;;;;9.30;4.23;;;2.50;99.90;;;;;;4980338;28;20244;-64
2023/03/03 08:28:26;;;;;;;6.27;3.87;;;2.60;99.90;;;;;;5010045;28;20337;-64
2023/03/03 08:30:53;;;;;;;16.27;3.90;;;2.70;99.90;;;;;;5004064;28;20244;-65
2023/03/03 08:33:20;;;;;;;7.17;4.47;;;2.70;99.90;;;;;;4985651;28;20225;-65
2023/03/03 08:35:47;;;;;;;10.60;4.17;;;2.70;99.90;;;;;;5014672;28;20221;-64
2023/03/03 08:38:17;;;;;;;5.90;3.93;;;2.70;99.90;;;;;;5008413;28;20584;-65
2023/03/03 08:40:45;;;;;;;5.87;4.00;;;2.80;99.90;;;;;;4963357;28;20240;-64
2023/03/03 08:43:15;;;;;;;4.73;3.63;;;2.90;99.90;;;;;;5004613;28;20690;-64
2023/03/03 08:45:43;;;;;;;10.93;3.77;;;2.90;99.90;;;;;;4992431;28;20219;-64
2023/03/03 08:48:10;;;;;;;4.63;3.77;;;3.00;99.90;;;;;;5019586;28;20588;-64
2023/03/03 08:50:37;;;;;;;7.77;3.93;;;3.10;99.90;;;;;;5006613;28;20706;-64
2023/03/03 08:53:04;;;;;;;4.53;3.70;;;3.10;99.90;;;;;;5011517;28;20659;-65
2023/03/03 08:55:33;;;;;;;5.33;3.93;;;3.20;99.90;;;;;;4983618;28;20213;-65
2023/03/03 08:58:00;;;;;;;9.67;3.90;;;3.20;99.90;;;;;;5019384;28;20775;-65
2023/03/03 09:00:27;;;;;;;11.60;3.97;;;3.30;99.90;;;;;;4997242;28;20209;-64
2023/03/03 09:02:55;;;;;;;32.73;5.27;;;3.30;99.90;;;;;;5011717;28;20224;-65
2023/03/03 09:05:23;;;;;;;7.53;4.17;;;3.30;99.90;;;;;;5011760;28;20201;-64
2023/03/03 09:07:51;;;;;;;7.03;4.67;;;3.30;99.90;;;;;;4989289;28;20225;-64
2023/03/03 09:10:21;;;;;;;10.60;4.67;;;3.40;99.90;;;;;;4989754;28;20861;-64
2023/03/03 09:12:49;;;;;;;6.40;4.67;;;3.50;99.90;;;;;;4952172;28;20333;-65
2023/03/03 09:15:22;;;;;;;7.80;5.10;;;3.60;99.90;;;;;;5009340;28;20232;-65
2023/03/03 09:17:49;;;;;;;7.17;4.97;;;3.60;99.90;;;;;;4995516;28;20259;-65
2023/03/03 09:20:33;;;;;;;8.57;5.43;;;3.70;99.90;;;;;;4995924;28;20549;-65
2023/03/03 09:23:16;;;;;;;8.50;5.03;;;3.80;99.90;;;;;;4987342;28;20334;-65
2023/03/03 09:25:43;;;;;;;6.83;4.30;;;3.90;99.90;;;;;;4990164;28;20224;-65
2023/03/03 09:28:23;;;;;;;13.97;5.13;;;3.90;99.90;;;;;;4993048;28;20359;-65
2023/03/03 09:30:54;;;;;;;8.83;5.40;;;4.00;99.90;;;;;;5008212;28;20217;-65
2023/03/03 09:33:27;;;;;;;11.90;5.00;;;4.00;99.90;;;;;;5005426;28;20193;-65
2023/03/03 09:36:00;;;;;;;10.07;5.57;;;4.10;99.90;;;;;;4999304;28;20229;-64
2023/03/03 09:38:29;;;;;;;8.80;4.77;;;4.10;99.90;;;;;;5002588;28;21252;-65
2023/03/03 09:41:16;;;;;;;10.97;5.60;;;4.30;99.90;;;;;;5011283;28;20394;-65
2023/03/03 09:43:58;;;;;;;7.57;5.07;;;4.30;99.90;;;;;;5018181;28;20197;-65
2023/03/03 09:46:34;;;;;;;7.40;4.83;;;4.30;99.90;;;;;;4989141;28;20567;-65
2023/03/03 09:49:14;;;;;;;6.53;5.17;;;4.30;99.90;;;;;;5006120;28;20213;-65
2023/03/03 09:51:59;;;;;;;11.83;5.07;;;4.40;99.90;;;;;;5005001;28;20228;-65
2023/03/03 09:54:40;;;;;;;9.27;5.20;;;4.50;99.90;;;;;;5003349;28;20798;-65
2023/03/03 09:57:14;;;;;;;6.90;4.87;;;4.40;99.90;;;;;;4973460;28;20229;-66
2023/03/03 10:00:03;;;;;;;10.77;5.40;;;4.50;99.90;;;;;;5014968;28;20517;-65
2023/03/03 10:02:41;;;;;;;9.20;5.03;;;4.50;99.90;;;;;;5008478;28;20763;-65
2023/03/03 10:05:18;;;;;;;12.07;4.97;;;4.50;99.90;;;;;;5006417;28;20201;-65
2023/03/03 10:07:58;;;;;;;9.77;5.10;;;4.50;99.90;;;;;;5003615;28;20228;-64
2023/03/03 10:10:38;;;;;;;12.43;5.27;;;4.60;99.90;;;;;;4994469;28;20817;-65
2023/03/03 10:13:18;;;;;;;10.77;5.33;;;4.70;99.90;;;;;;4985218;28;20283;-65
2023/03/03 10:15:57;;;;;;;12.47;6.03;;;4.80;99.90;;;;;;5022980;28;20201;-64
2023/03/03 10:18:32;;;;;;;8.57;5.47;;;4.80;99.90;;;;;;4996340;28;20248;-65
2023/03/03 10:21:08;;;;;;;8.60;5.20;;;4.90;99.90;;;;;;5001557;28;20228;-65
2023/03/03 10:23:51;;;;;;;7.73;4.87;;;5.10;99.90;;;;;;5001326;28;21375;-65
2023/03/03 10:26:29;;;;;;;10.47;4.70;;;5.10;99.90;;;;;;4984179;28;20314;-65
2023/03/03 10:29:08;;;;;;;6.03;4.13;;;5.20;99.90;;;;;;4988305;28;20753;-64
2023/03/03 10:31:49;;;;;;;6.63;3.90;;;5.30;99.90;;;;;;5021453;28;20198;-65
2023/03/03 10:34:36;;;;;;;7.30;4.10;;;5.40;99.90;;;;;;4993291;28;20233;-65
2023/03/03 10:37:13;;;;;;;11.27;4.53;;;5.50;99.90;;;;;;4995815;28;20225;-65
2023/03/03 10:40:01;;;;;;;8.40;4.23;;;5.40;99.90;;;;;;4990067;28;20809;-65
2023/03/03 10:42:58;;;;;;;5.97;3.87;;;5.40;99.90;;;;;;5010092;28;20202;-65
2023/03/03 10:45:49;;;;;;;7.87;3.47;;;5.40;99.90;;;;;;4987203;28;20244;-65
2023/03/03 10:48:38;;;;;;;12.67;3.73;;;5.40;99.90;;;;;;5021793;28;20288;-65
2023/03/03 10:51:14;;;;;;;7.13;3.93;;;5.30;99.90;;;;;;5010732;28;20213;-65
2023/03/03 10:53:49;;;;;;;8.03;3.90;;;5.50;99.90;;;;;;5002879;28;20223;-65
2023/03/03 10:56:29;;;;;;;5.30;3.83;;;5.50;99.90;;;;;;5001817;28;20807;-65
2023/03/03 10:59:06;;;;;;;8.63;4.23;;;5.50;99.90;;;;;;4975924;28;26903;-65
2023/03/03 11:01:46;;;;;;;7.17;4.33;;;5.50;99.90;;;;;;5014647;28;20205;-65
2023/03/03 11:04:32;;;;;;;15.37;6.90;;;5.60;99.90;;;;;;5014077;28;20202;-65
2023/03/03 11:07:06;;;;;;;13.60;7.67;;;5.60;99.90;;;;;;4993461;28;20256;-65
2023/03/03 11:09:49;;;;;;;9.63;6.63;;;5.60;99.90;;;;;;5006736;28;20205;-65
2023/03/03 11:12:28;;;;;;;9.97;6.90;;;5.70;99.90;;;;;;5013364;28;20215;-65
2023/03/03 11:15:13;;;;;;;16.63;8.07;;;5.70;99.90;;;;;;4982718;28;20244;-66
2023/03/03 11:17:57;;;;;;;11.70;8.00;;;5.70;99.90;;;;;;5012620;28;20228;-67
2023/03/03 11:20:35;;;;;;;15.23;8.00;;;5.60;99.90;;;;;;5017490;28;20204;-65
2023/03/03 11:23:21;;;;;;;14.20;7.73;;;5.60;99.90;;;;;;5005436;28;20676;-65
2023/03/03 11:25:54;;;;;;;18.07;9.60;;;5.60;99.90;;;;;;5005994;28;20221;-65
2023/03/03 11:28:30;;;;;;;21.50;10.80;;;5.50;99.90;;;;;;5015418;28;20194;-65
2023/03/03 11:31:07;;;;;;;12.33;8.07;;;5.50;99.90;;;;;;4991744;28;20206;-65
2023/03/03 11:33:43;;;;;;;11.63;7.47;;;5.60;99.90;;;;;;5018046;28;20198;-65
2023/03/03 11:36:17;;;;;;;4.60;3.20;;;5.60;99.90;;;;;;5012403;28;20219;-66
2023/03/03 11:38:53;;;;;;;6.87;2.40;;;5.60;99.00;;;;;;4981533;28;20225;-65
2023/03/03 11:41:29;;;;;;;4.73;1.83;;;5.60;89.60;;;;;;4999652;28;20213;-65
2023/03/03 11:44:03;;;;;;;4.30;1.93;;;5.70;99.90;;;;;;4995789;28;20217;-65
2023/03/03 11:46:35;;;;;;;2.90;2.13;;;5.80;99.90;;;;;;4980701;28;20382;-65
2023/03/03 11:49:06;;;;;;;3.17;2.00;;;5.90;99.90;;;;;;5001321;28;20264;-65
2023/03/03 11:51:44;;;;;;;3.43;2.10;;;5.90;99.90;;;;;;5010710;28;20210;-65
2023/03/03 11:54:18;;;;;;;4.23;2.10;;;5.90;99.90;;;;;;5014178;28;20205;-64
2023/03/03 11:56:46;;;;;;;5.90;2.20;;;6.00;99.90;;;;;;5005668;28;20222;-64
2023/03/03 11:59:44;;;;;;;3.17;1.70;;;6.10;99.90;;;;;;4981439;28;20289;-65
2023/03/03 12:02:29;;;;;;;2.50;1.73;;;6.10;99.90;;;;;;4981090;28;20597;-64
2023/03/03 12:05:00;;;;;;;3.57;1.47;;;6.10;99.90;;;;;;4977731;28;20400;-65
2023/03/03 12:07:37;;;;;;;6.73;2.03;;;6.10;99.90;;;;;;4998467;28;20571;-64
2023/03/03 12:10:16;;;;;;;6.57;2.20;;;6.20;99.90;;;;;;4992970;28;20661;-64
2023/03/03 12:12:45;;;;;;;11.63;3.63;;;6.30;99.90;;;;;;4975527;28;20339;-66
2023/03/03 12:15:22;;;;;;;1.90;1.43;;;6.30;99.90;;;;;;5007353;28;21442;-64
2023/03/03 12:18:21;;;;;;;2.53;1.97;;;6.20;99.90;;;;;;4981898;28;20237;-65
2023/03/03 12:20:55;;;;;;;5.17;1.97;;;6.30;99.90;;;;;;4985765;28;20544;-65
2023/03/03 12:23:46;;;;;;;2.93;1.83;;;6.30;99.90;;;;;;4998167;28;20245;-64
2023/03/03 12:26:19;;;;;;;3.40;1.60;;;6.30;99.90;;;;;;4980572;28;20228;-64
2023/03/03 12:28:53;;;;;;;2.63;1.67;;;6.30;99.90;;;;;;5001557;28;20303;-65
2023/03/03 12:31:35;;;;;;;2.23;1.90;;;6.30;99.90;;;;;;5020505;28;20225;-65
2023/03/03 12:34:09;;;;;;;5.27;1.60;;;6.40;99.90;;;;;;4962699;28;20221;-65
2023/03/03 12:36:59;;;;;;;11.00;3.07;;;6.40;99.90;;;;;;4992946;28;20218;-65
2023/03/03 12:39:40;;;;;;;6.60;1.83;;;6.50;99.90;;;;;;5011388;28;20336;-64
2023/03/03 12:42:16;;;;;;;3.87;1.40;;;6.40;99.90;;;;;;4999267;28;20226;-64
2023/03/03 12:44:49;;;;;;;3.20;1.77;;;6.50;99.90;;;;;;4998050;28;20229;-65
2023/03/03 12:47:21;;;;;;;2.67;1.23;;;6.50;99.90;;;;;;5015959;28;20216;-64
2023/03/03 12:49:59;;;;;;;2.17;1.30;;;6.40;99.90;;;;;;4966563;28;20241;-64
2023/03/03 12:52:33;;;;;;;5.00;1.47;;;6.40;99.90;;;;;;5002244;28;20227;-65
2023/03/03 12:55:10;;;;;;;3.00;1.30;;;6.30;99.90;;;;;;5006979;28;20229;-64
2023/03/03 12:57:45;;;;;;;3.23;1.60;;;6.30;99.90;;;;;;4984053;28;20754;-64
2023/03/03 13:00:38;;;;;;;1.87;1.37;;;6.20;99.90;;;;;;5006092;28;20211;-64
2023/03/03 13:03:13;;;;;;;3.23;1.73;;;6.20;99.90;;;;;;5015666;28;20215;-64
2023/03/03 13:05:51;;;;;;;8.53;1.50;;;6.30;99.90;;;;;;4961454;28;20690;-65
2023/03/03 13:08:43;;;;;;;4.87;1.47;;;6.30;99.90;;;;;;5008391;28;20212;-64
2023/03/03 13:11:30;;;;;;;1.67;1.30;;;6.40;99.90;;;;;;5016489;28;20209;-64